Time;durP1;ratioP1;P1;durP2;ratioP2;P2;SDS_P1;SDS_P2;PMS_P1;PMS_P2;Temp;Humidity;BMP_temperature;BMP_pressure;BME280_temperature;BME280_humidity;BME280_pressure;Samples;Min_cycle;Max_cycle;Signal;HPM_P1;HPM_P2
2021/11/16 00:00:42;;;;;;;56.97;24.08;;;8.20;86.30;;;;;;4968865;28;20042;-73
2021/11/16 00:03:09;;;;;;;54.20;22.92;;;8.20;86.00;;;;;;4976712;28;20077;-73
2021/11/16 00:05:35;;;;;;;52.42;22.92;;;8.20;86.00;;;;;;4969360;28;20046;-73
2021/11/16 00:08:01;;;;;;;54.75;24.58;;;8.20;85.60;;;;;;4968951;28;20039;-73
2021/11/16 00:10:27;;;;;;;52.20;24.08;;;8.20;85.80;;;;;;4970483;28;20088;-72
2021/11/16 00:12:53;;;;;;;57.33;24.55;;;8.20;85.60;;;;;;4978463;28;20125;-73
2021/11/16 00:15:19;;;;;;;53.03;23.42;;;8.20;85.80;;;;;;4968085;28;20056;-73
2021/11/16 00:17:45;;;;;;;54.35;22.70;;;8.20;85.80;;;;;;4971681;28;20061;-73
2021/11/16 00:20:12;;;;;;;57.50;23.88;;;8.20;85.80;;;;;;4966134;28;20038;-72
2021/11/16 00:22:40;;;;;;;51.40;22.90;;;8.20;85.90;;;;;;4970202;28;20061;-72
2021/11/16 00:25:19;;;;;;;51.13;21.42;;;8.10;86.40;;;;;;4986627;28;20034;-72
2021/11/16 00:27:46;;;;;;;54.60;23.77;;;8.20;86.60;;;;;;4971371;28;20506;-72
2021/11/16 00:30:12;;;;;;;50.92;23.05;;;8.20;86.00;;;;;;4977919;28;20603;-73
2021/11/16 00:32:38;;;;;;;53.65;23.02;;;8.20;86.00;;;;;;4977981;28;20093;-72
2021/11/16 00:35:05;;;;;;;52.28;24.38;;;8.20;86.30;;;;;;4972378;28;20498;-74
2021/11/16 00:37:32;;;;;;;57.45;23.77;;;8.20;86.10;;;;;;4972685;28;20022;-72
2021/11/16 00:40:04;;;;;;;51.47;22.95;;;8.20;85.80;;;;;;4963197;28;20048;-72
2021/11/16 00:42:30;;;;;;;58.58;24.60;;;8.20;85.90;;;;;;4965669;28;20442;-73
2021/11/16 00:44:56;;;;;;;57.40;24.17;;;8.20;86.30;;;;;;4971104;28;20054;-73
2021/11/16 00:47:22;;;;;;;64.20;26.05;;;8.20;86.60;;;;;;4971893;28;20034;-73
2021/11/16 00:49:50;;;;;;;61.65;26.80;;;8.20;85.90;;;;;;4971075;28;20038;-72
2021/11/16 00:52:16;;;;;;;57.33;24.10;;;8.20;85.70;;;;;;4974374;28;20062;-72
2021/11/16 00:54:42;;;;;;;62.70;25.15;;;8.10;86.00;;;;;;4970579;28;20046;-72
2021/11/16 00:57:08;;;;;;;54.53;24.30;;;8.10;86.40;;;;;;4971349;28;20030;-72
2021/11/16 00:59:35;;;;;;;55.05;23.48;;;8.10;86.50;;;;;;4969900;28;20056;-72
2021/11/16 01:02:01;;;;;;;52.97;23.50;;;8.10;86.90;;;;;;4971616;28;20081;-72
2021/11/16 01:04:28;;;;;;;57.63;24.77;;;8.10;86.20;;;;;;4968225;28;20061;-72
2021/11/16 01:06:54;;;;;;;63.00;24.20;;;8.10;86.30;;;;;;4963663;28;20413;-71
2021/11/16 01:09:20;;;;;;;56.42;25.13;;;8.10;86.50;;;;;;4976598;28;20058;-72
2021/11/16 01:11:47;;;;;;;60.15;24.23;;;8.10;86.80;;;;;;4968173;28;20641;-72
2021/11/16 01:14:13;;;;;;;58.50;24.67;;;8.10;86.80;;;;;;4973786;28;20163;-71
2021/11/16 01:16:40;;;;;;;62.83;26.38;;;8.10;86.60;;;;;;4967632;28;20126;-72
2021/11/16 01:19:07;;;;;;;56.72;23.40;;;8.10;86.40;;;;;;4963783;28;20695;-72
2021/11/16 01:21:34;;;;;;;57.25;24.35;;;8.00;86.50;;;;;;4970252;28;20043;-72
2021/11/16 01:24:02;;;;;;;53.45;23.58;;;8.00;87.20;;;;;;4970290;28;20105;-72
2021/11/16 01:26:28;;;;;;;58.95;24.05;;;8.00;87.30;;;;;;4961528;28;20050;-73
2021/11/16 01:28:55;;;;;;;64.03;26.08;;;8.10;87.40;;;;;;4970275;28;20041;-72
2021/11/16 01:31:21;;;;;;;55.28;23.45;;;8.00;86.70;;;;;;4971247;28;20077;-72
2021/11/16 01:33:55;;;;;;;61.05;25.17;;;8.00;86.90;;;;;;4977076;28;20137;-72
2021/11/16 01:36:22;;;;;;;56.92;23.58;;;8.00;86.90;;;;;;4977512;28;20034;-72
2021/11/16 01:38:50;;;;;;;62.20;25.05;;;8.00;87.00;;;;;;4971357;28;20145;-72
2021/11/16 01:41:18;;;;;;;58.05;25.20;;;8.00;87.90;;;;;;4970505;28;20085;-72
2021/11/16 01:43:44;;;;;;;57.13;24.45;;;8.10;87.10;;;;;;4977950;28;20578;-72
2021/11/16 01:46:13;;;;;;;63.35;25.92;;;8.10;87.10;;;;;;4976557;28;20038;-72
2021/11/16 01:48:41;;;;;;;60.72;25.08;;;8.00;86.50;;;;;;4967170;28;20049;-71
2021/11/16 01:51:07;;;;;;;65.30;24.50;;;8.00;86.90;;;;;;4963948;28;20031;-72
2021/11/16 01:53:33;;;;;;;58.95;25.80;;;8.00;87.20;;;;;;4961698;28;20045;-73
2021/11/16 01:56:00;;;;;;;65.28;25.92;;;8.00;87.20;;;;;;4968712;28;20043;-72
2021/11/16 01:58:26;;;;;;;63.60;26.73;;;8.00;87.40;;;;;;4968080;28;20034;-72
2021/11/16 02:00:53;;;;;;;61.58;26.58;;;8.00;87.60;;;;;;4966138;28;20080;-72
2021/11/16 02:03:19;;;;;;;63.03;26.75;;;8.00;87.40;;;;;;4965574;28;20042;-72
2021/11/16 02:05:49;;;;;;;65.40;24.88;;;8.00;87.40;;;;;;4972231;28;20837;-72
2021/11/16 02:08:15;;;;;;;59.83;25.10;;;7.90;87.60;;;;;;4970936;28;20038;-72
2021/11/16 02:10:44;;;;;;;66.53;26.05;;;8.00;87.80;;;;;;4964134;28;20049;-73
2021/11/16 02:13:10;;;;;;;63.97;26.05;;;8.00;87.60;;;;;;4966326;28;20121;-72
2021/11/16 02:15:37;;;;;;;61.75;27.88;;;7.90;87.70;;;;;;4971271;28;20040;-72
2021/11/16 02:18:13;;;;;;;62.97;27.17;;;7.90;87.90;;;;;;4965074;28;20046;-72
2021/11/16 02:20:47;;;;;;;65.75;25.70;;;7.90;88.20;;;;;;4960431;28;20038;-72
2021/11/16 02:23:14;;;;;;;64.63;26.10;;;7.90;87.80;;;;;;4964972;28;20049;-72
2021/11/16 02:25:40;;;;;;;65.05;27.20;;;7.80;87.80;;;;;;4971439;28;20101;-72
2021/11/16 02:28:06;;;;;;;71.80;28.60;;;7.70;88.40;;;;;;4968288;28;20046;-72
2021/11/16 02:30:32;;;;;;;64.30;26.40;;;7.70;88.80;;;;;;4961358;28;20042;-72
2021/11/16 02:32:59;;;;;;;67.75;27.73;;;7.70;88.80;;;;;;4967817;28;20495;-70
2021/11/16 02:35:26;;;;;;;70.15;28.38;;;7.70;88.90;;;;;;4969647;28;20041;-72
2021/11/16 02:37:52;;;;;;;63.90;26.17;;;7.80;89.00;;;;;;4977234;28;20034;-72
2021/11/16 02:40:18;;;;;;;69.88;28.33;;;7.80;88.90;;;;;;4976318;28;20045;-72
2021/11/16 02:42:45;;;;;;;68.97;28.77;;;7.90;89.00;;;;;;4971587;28;20038;-72
2021/11/16 02:45:13;;;;;;;76.13;30.33;;;7.90;88.70;;;;;;4966851;28;20043;-71
2021/11/16 02:47:39;;;;;;;65.32;26.80;;;7.90;88.00;;;;;;4971060;28;20214;-72
2021/11/16 02:50:06;;;;;;;63.45;28.30;;;7.90;87.90;;;;;;4969187;28;20141;-72
2021/11/16 02:52:32;;;;;;;62.40;26.40;;;7.90;88.00;;;;;;4970144;28;20049;-72
2021/11/16 02:54:58;;;;;;;68.07;26.67;;;7.90;88.00;;;;;;4973207;28;20035;-71
2021/11/16 02:57:24;;;;;;;62.40;26.10;;;7.90;88.00;;;;;;4976192;28;20030;-72
2021/11/16 02:59:51;;;;;;;75.43;28.23;;;7.90;88.10;;;;;;4971822;28;20041;-72
2021/11/16 03:02:17;;;;;;;69.75;27.25;;;7.90;88.00;;;;;;4966662;28;20038;-72
2021/11/16 03:04:45;;;;;;;71.78;28.40;;;7.90;87.90;;;;;;4964384;28;20057;-71
2021/11/16 03:07:13;;;;;;;70.05;29.33;;;7.90;88.10;;;;;;4960760;28;20141;-71
2021/11/16 03:09:50;;;;;;;67.70;27.05;;;7.80;88.20;;;;;;4963881;28;20054;-72
2021/11/16 03:12:16;;;;;;;69.55;29.35;;;7.70;88.60;;;;;;4966356;28;20686;-72
2021/11/16 03:14:42;;;;;;;72.35;28.92;;;7.60;88.90;;;;;;4977034;28;20065;-71
2021/11/16 03:17:08;;;;;;;70.28;30.08;;;7.60;89.20;;;;;;4973458;28;20138;-72
2021/11/16 03:19:36;;;;;;;75.00;28.67;;;7.50;89.40;;;;;;4969058;28;20635;-72
2021/11/16 03:22:02;;;;;;;70.45;28.13;;;7.50;89.90;;;;;;4971733;28;20052;-72
2021/11/16 03:24:33;;;;;;;70.30;29.15;;;7.50;90.00;;;;;;4963673;28;20082;-72
2021/11/16 03:27:03;;;;;;;76.97;29.50;;;7.60;89.90;;;;;;4970805;28;20648;-72
2021/11/16 03:29:31;;;;;;;76.18;29.35;;;7.60;89.80;;;;;;4970955;28;20700;-72
2021/11/16 03:32:09;;;;;;;75.07;29.98;;;7.70;89.40;;;;;;4965050;28;20030;-72
2021/11/16 03:34:35;;;;;;;73.68;28.63;;;7.60;89.40;;;;;;4964020;28;20070;-72
2021/11/16 03:37:03;;;;;;;72.82;29.75;;;7.60;89.20;;;;;;4966827;28;20038;-72
2021/11/16 03:39:30;;;;;;;73.43;29.23;;;7.60;89.50;;;;;;4973313;28;20030;-71
2021/11/16 03:41:56;;;;;;;67.07;27.80;;;7.50;89.70;;;;;;4979338;28;20038;-72
2021/11/16 03:44:24;;;;;;;72.43;30.05;;;7.50;90.00;;;;;;4978721;28;20051;-71
2021/11/16 03:46:49;;;;;;;69.82;28.52;;;7.50;89.80;;;;;;4971975;28;20050;-71
2021/11/16 03:49:15;;;;;;;68.65;27.80;;;7.50;90.00;;;;;;4968900;28;20030;-72
2021/11/16 03:51:44;;;;;;;66.10;26.92;;;7.50;90.00;;;;;;4977015;28;20040;-72
2021/11/16 03:54:10;;;;;;;65.45;27.58;;;7.60;89.80;;;;;;4977749;28;20089;-72
2021/11/16 03:56:36;;;;;;;66.03;25.73;;;7.50;89.90;;;;;;4972220;28;20026;-72
2021/11/16 03:59:02;;;;;;;69.10;28.33;;;7.50;90.00;;;;;;4970223;28;20045;-72
2021/11/16 04:01:29;;;;;;;66.95;27.15;;;7.50;90.00;;;;;;4964241;28;20027;-72
2021/11/16 04:03:55;;;;;;;70.72;27.75;;;7.50;89.70;;;;;;4976930;28;20713;-72
2021/11/16 04:06:22;;;;;;;74.95;28.70;;;7.50;90.00;;;;;;4972075;28;20041;-72
2021/11/16 04:08:48;;;;;;;72.30;29.13;;;7.60;90.10;;;;;;4977297;28;20066;-72
2021/11/16 04:11:14;;;;;;;72.97;28.60;;;7.60;90.00;;;;;;4980468;28;20142;-72
2021/11/16 04:13:41;;;;;;;74.25;28.73;;;7.60;90.20;;;;;;4968263;28;20057;-72
2021/11/16 04:16:07;;;;;;;76.70;29.48;;;7.60;90.30;;;;;;4962887;28;20050;-72
2021/11/16 04:18:33;;;;;;;72.85;28.40;;;7.70;89.90;;;;;;4967591;28;20354;-71
2021/11/16 04:21:00;;;;;;;70.35;29.52;;;7.70;89.90;;;;;;4974521;28;20050;-72
2021/11/16 04:23:26;;;;;;;65.28;26.55;;;7.70;89.80;;;;;;4970042;28;20121;-72
2021/11/16 04:25:53;;;;;;;79.85;30.25;;;7.70;90.00;;;;;;4968458;28;20073;-72
2021/11/16 04:28:20;;;;;;;65.00;28.27;;;7.70;89.60;;;;;;4975017;28;20050;-72
2021/11/16 04:30:47;;;;;;;78.47;29.95;;;7.70;89.70;;;;;;4978103;28;20027;-72
2021/11/16 04:33:15;;;;;;;71.15;29.80;;;7.70;89.60;;;;;;4971413;28;20049;-72
2021/11/16 04:35:41;;;;;;;70.70;27.83;;;7.70;90.10;;;;;;4974862;28;20031;-72
2021/11/16 04:38:10;;;;;;;69.80;28.73;;;7.70;90.30;;;;;;4968481;28;20076;-72
2021/11/16 04:40:41;;;;;;;71.68;29.60;;;7.70;90.20;;;;;;4969254;28;20034;-72
2021/11/16 04:43:10;;;;;;;69.32;28.67;;;7.70;90.10;;;;;;4972900;28;20034;-72
2021/11/16 04:45:38;;;;;;;80.13;30.80;;;7.70;90.20;;;;;;4976023;28;20042;-72
2021/11/16 04:59:31;;;;;;;70.28;28.05;;;7.70;90.20;;;;;;4972949;28;20038;-72
2021/11/16 05:04:09;;;;;;;66.55;26.80;;;7.70;89.80;;;;;;4976429;28;20042;-72
2021/11/16 05:06:35;;;;;;;67.22;27.90;;;7.70;90.00;;;;;;4977727;28;20049;-72
2021/11/16 05:09:02;;;;;;;60.28;24.45;;;7.70;90.00;;;;;;4967149;28;20046;-72
2021/11/16 05:11:27;;;;;;;71.95;28.27;;;7.70;90.00;;;;;;4972601;28;20040;-72
2021/11/16 05:13:53;;;;;;;69.30;29.35;;;7.70;90.10;;;;;;4977681;28;20042;-71
2021/11/16 05:16:21;;;;;;;66.30;27.40;;;7.70;90.00;;;;;;4975422;28;20113;-72
2021/11/16 05:18:48;;;;;;;70.60;27.42;;;7.60;90.30;;;;;;4968128;28;20451;-71
2021/11/16 05:21:15;;;;;;;76.22;28.33;;;7.60;90.20;;;;;;4972043;28;20118;-72
2021/11/16 05:23:55;;;;;;;69.10;27.83;;;7.60;90.30;;;;;;4971060;28;20046;-72
2021/11/16 05:26:22;;;;;;;55.75;25.27;;;7.70;90.30;;;;;;4973637;28;20035;-72
2021/11/16 05:28:48;;;;;;;58.65;24.45;;;7.70;90.40;;;;;;4969014;28;20077;-72
2021/11/16 05:31:15;;;;;;;65.32;25.85;;;7.70;90.30;;;;;;4969655;28;20548;-72
2021/11/16 05:33:42;;;;;;;66.65;25.08;;;7.80;90.20;;;;;;4973803;28;20042;-72
2021/11/16 05:36:08;;;;;;;62.53;25.77;;;7.80;90.40;;;;;;4970077;28;20038;-72
2021/11/16 05:38:37;;;;;;;64.60;25.17;;;7.80;90.20;;;;;;4972464;28;20812;-72
2021/11/16 05:41:04;;;;;;;60.50;25.23;;;7.80;90.20;;;;;;4967060;28;20058;-72
2021/11/16 05:43:31;;;;;;;66.65;26.70;;;7.90;90.20;;;;;;4970409;28;20101;-71
2021/11/16 05:45:57;;;;;;;56.60;24.30;;;7.90;90.10;;;;;;4972561;28;20125;-72
2021/11/16 05:48:24;;;;;;;63.85;24.85;;;7.80;90.20;;;;;;4969705;28;20039;-72
2021/11/16 05:50:51;;;;;;;67.65;26.15;;;7.80;90.10;;;;;;4975598;28;20047;-72
2021/11/16 05:53:18;;;;;;;68.70;25.95;;;7.70;90.30;;;;;;4985139;28;20085;-72
2021/11/16 05:55:45;;;;;;;66.78;25.58;;;7.70;90.40;;;;;;4976914;28;20026;-72
2021/11/16 05:58:18;;;;;;;61.38;25.88;;;7.70;90.50;;;;;;4973763;28;20038;-72
2021/11/16 06:00:44;;;;;;;65.63;26.10;;;7.70;90.70;;;;;;4977339;28;20041;-72
2021/11/16 06:03:11;;;;;;;65.30;25.23;;;7.70;90.40;;;;;;4973681;28;20097;-72
2021/11/16 06:05:37;;;;;;;62.33;25.67;;;7.70;90.30;;;;;;4970956;28;20042;-72
2021/11/16 06:08:04;;;;;;;64.50;26.95;;;7.80;90.40;;;;;;4974820;28;20893;-72
2021/11/16 06:10:30;;;;;;;55.58;23.88;;;7.80;90.40;;;;;;4972626;28;20570;-72
2021/11/16 06:12:56;;;;;;;56.22;24.00;;;7.80;90.40;;;;;;4973735;28;20844;-72
2021/11/16 06:15:22;;;;;;;59.33;25.88;;;7.80;90.40;;;;;;4988110;28;20186;-72
2021/11/16 06:17:48;;;;;;;62.65;25.40;;;7.90;90.40;;;;;;4973561;28;20203;-72
2021/11/16 06:20:20;;;;;;;58.67;23.70;;;7.90;90.30;;;;;;4962170;28;20484;-72
2021/11/16 06:22:47;;;;;;;59.83;25.15;;;7.90;90.00;;;;;;4971496;28;20034;-72
2021/11/16 06:25:14;;;;;;;58.05;24.30;;;7.90;90.10;;;;;;4974703;28;20979;-72
2021/11/16 06:27:39;;;;;;;55.70;23.23;;;7.80;90.10;;;;;;4969259;28;20053;-74
2021/11/16 06:30:07;;;;;;;59.38;25.42;;;7.80;90.30;;;;;;4965678;28;20038;-73
2021/11/16 06:32:33;;;;;;;60.90;24.60;;;7.70;90.30;;;;;;4966712;28;20042;-73
2021/11/16 06:34:58;;;;;;;59.72;23.70;;;7.70;90.60;;;;;;4974557;28;20482;-72
2021/11/16 06:37:24;;;;;;;60.47;25.55;;;7.80;90.60;;;;;;4973590;28;20128;-75
2021/11/16 06:39:50;;;;;;;53.95;22.60;;;7.80;90.60;;;;;;4974536;28;20034;-71
2021/11/16 06:42:16;;;;;;;52.78;22.52;;;7.80;90.30;;;;;;4970914;28;20745;-73
2021/11/16 06:44:42;;;;;;;56.75;24.50;;;7.80;90.50;;;;;;4969745;28;20034;-72
2021/11/16 06:47:13;;;;;;;57.70;23.35;;;7.80;90.60;;;;;;4977086;28;20341;-74
2021/11/16 06:49:41;;;;;;;54.45;24.25;;;7.90;90.50;;;;;;4969305;28;20030;-75
2021/11/16 06:52:07;;;;;;;58.88;25.38;;;7.80;90.20;;;;;;4972149;28;20029;-73
2021/11/16 06:54:33;;;;;;;47.30;20.85;;;7.80;90.30;;;;;;4977628;28;20157;-70
2021/11/16 06:56:59;;;;;;;56.03;23.10;;;7.80;90.50;;;;;;4975299;28;20133;-72
2021/11/16 06:59:25;;;;;;;57.88;24.73;;;7.80;90.30;;;;;;4971252;28;20037;-70
2021/11/16 07:01:53;;;;;;;52.92;23.35;;;7.80;90.40;;;;;;4976467;28;20038;-71
2021/11/16 07:04:19;;;;;;;60.33;24.42;;;7.80;90.50;;;;;;4972788;28;20092;-70
2021/11/16 07:06:48;;;;;;;62.85;24.13;;;7.80;90.40;;;;;;4977317;28;20042;-70
2021/11/16 07:09:15;;;;;;;56.20;24.15;;;7.90;90.40;;;;;;4971575;28;20881;-72
2021/11/16 07:11:51;;;;;;;57.92;25.08;;;7.80;90.30;;;;;;4970834;28;20174;-71
2021/11/16 07:14:19;;;;;;;58.03;22.63;;;7.90;90.00;;;;;;4976530;28;20049;-71
2021/11/16 07:16:53;;;;;;;59.97;23.55;;;7.80;90.00;;;;;;4974711;28;20042;-72
2021/11/16 07:19:42;;;;;;;51.95;22.83;;;7.80;90.00;;;;;;4968369;28;20070;-71
2021/11/16 07:22:10;;;;;;;48.78;22.17;;;7.70;90.30;;;;;;4970343;28;20052;-71
2021/11/16 07:24:48;;;;;;;56.08;23.83;;;7.70;90.50;;;;;;4964087;28;20121;-71
2021/11/16 07:27:22;;;;;;;59.65;22.58;;;7.80;90.50;;;;;;4973146;28;20045;-73
2021/11/16 07:29:54;;;;;;;48.45;22.20;;;7.90;90.30;;;;;;4990546;28;20725;-70
2021/11/16 07:32:26;;;;;;;52.63;22.25;;;7.90;90.00;;;;;;4971388;28;20034;-70
2021/11/16 07:34:55;;;;;;;54.42;21.02;;;7.80;89.90;;;;;;4976592;28;20031;-72
2021/11/16 07:37:26;;;;;;;54.92;23.65;;;7.80;90.20;;;;;;4971080;28;20128;-71
2021/11/16 07:39:55;;;;;;;55.95;22.15;;;7.90;90.20;;;;;;4970873;28;20396;-71
2021/11/16 07:42:24;;;;;;;57.08;24.25;;;7.80;90.20;;;;;;4969101;28;20034;-75
2021/11/16 07:45:05;;;;;;;55.97;24.60;;;7.80;90.20;;;;;;4973884;28;20512;-72
2021/11/16 07:47:41;;;;;;;56.33;23.67;;;7.80;90.40;;;;;;4964886;28;20132;-72
2021/11/16 07:50:10;;;;;;;53.47;23.13;;;7.90;90.40;;;;;;4968851;28;20694;-73
2021/11/16 07:52:35;;;;;;;48.58;20.73;;;8.00;90.10;;;;;;4975899;28;20049;-73
2021/11/16 07:55:03;;;;;;;56.47;23.92;;;8.00;90.10;;;;;;4975551;28;20569;-73
2021/11/16 07:57:29;;;;;;;54.38;22.85;;;8.10;90.00;;;;;;4973517;28;20053;-73
2021/11/16 07:59:56;;;;;;;51.40;21.40;;;8.20;89.40;;;;;;4971581;28;20034;-72
2021/11/16 08:02:32;;;;;;;52.28;21.88;;;8.20;89.00;;;;;;4980378;28;20038;-72
2021/11/16 08:05:19;;;;;;;50.17;22.08;;;8.30;88.60;;;;;;4977237;28;20040;-72
2021/11/16 08:08:03;;;;;;;54.22;21.13;;;8.40;88.40;;;;;;4971221;28;20034;-73
2021/11/16 08:10:29;;;;;;;53.45;20.25;;;8.40;88.10;;;;;;4975054;28;20057;-73
2021/11/16 08:13:14;;;;;;;45.13;20.55;;;8.50;88.00;;;;;;4978263;28;20031;-73
2021/11/16 08:15:40;;;;;;;56.95;22.50;;;8.50;88.00;;;;;;4972612;28;20807;-73
2021/11/16 08:18:11;;;;;;;50.95;21.02;;;8.60;87.70;;;;;;4980570;28;20053;-73
2021/11/16 08:20:38;;;;;;;56.90;23.73;;;8.70;87.40;;;;;;4977458;28;20049;-72
2021/11/16 08:23:05;;;;;;;50.08;19.88;;;8.70;87.20;;;;;;4970012;28;20034;-72
2021/11/16 08:25:32;;;;;;;53.67;23.50;;;8.80;87.40;;;;;;4979180;28;20038;-72
2021/11/16 08:27:58;;;;;;;50.40;20.75;;;8.90;87.30;;;;;;4976972;28;20060;-72
2021/11/16 08:30:25;;;;;;;46.50;20.80;;;9.00;87.00;;;;;;4975740;28;20133;-72
2021/11/16 08:32:57;;;;;;;60.85;23.70;;;9.00;86.10;;;;;;4990663;28;20781;-72
2021/11/16 08:35:24;;;;;;;54.95;21.95;;;9.10;85.70;;;;;;4971515;28;20065;-72
2021/11/16 08:38:12;;;;;;;49.17;20.65;;;9.10;85.60;;;;;;4975977;28;20565;-73
2021/11/16 08:40:44;;;;;;;55.72;23.23;;;9.20;85.70;;;;;;4974070;28;20124;-72
2021/11/16 08:43:16;;;;;;;48.17;20.70;;;9.30;85.80;;;;;;4975409;28;20045;-72
2021/11/16 08:45:48;;;;;;;52.60;20.05;;;9.30;84.80;;;;;;4975030;28;20494;-72
2021/11/16 08:48:17;;;;;;;54.22;22.45;;;9.30;85.20;;;;;;4976476;28;20096;-73
2021/11/16 08:51:00;;;;;;;58.47;24.75;;;9.40;85.00;;;;;;4977477;28;20034;-72
2021/11/16 08:53:31;;;;;;;54.85;24.25;;;9.40;85.00;;;;;;4992683;28;20121;-72
2021/11/16 08:55:58;;;;;;;51.95;22.08;;;9.50;84.70;;;;;;4976233;28;20034;-72
2021/11/16 08:58:29;;;;;;;58.10;24.20;;;9.50;84.20;;;;;;4975836;28;20042;-73
2021/11/16 09:00:58;;;;;;;58.28;23.48;;;9.50;84.70;;;;;;4977791;28;20026;-73
2021/11/16 09:03:29;;;;;;;55.90;23.67;;;9.50;83.80;;;;;;4969322;28;20101;-73
2021/11/16 09:05:57;;;;;;;57.50;22.58;;;9.50;84.30;;;;;;4970115;28;20038;-74
2021/11/16 09:08:26;;;;;;;58.63;24.50;;;9.50;84.10;;;;;;4971866;28;20038;-72
2021/11/16 09:11:04;;;;;;;51.60;22.08;;;9.60;84.00;;;;;;4967563;28;20030;-73
2021/11/16 09:13:33;;;;;;;60.15;24.25;;;9.60;83.90;;;;;;4964605;28;20045;-72
2021/11/16 09:16:05;;;;;;;55.67;23.40;;;9.60;84.30;;;;;;4961984;28;20090;-73
2021/11/16 09:18:43;;;;;;;51.33;23.02;;;9.60;84.40;;;;;;4971340;28;20112;-72
2021/11/16 09:21:16;;;;;;;62.25;25.10;;;9.60;84.10;;;;;;4980410;28;20398;-72
2021/11/16 09:23:50;;;;;;;54.63;24.42;;;9.60;83.40;;;;;;4977825;28;20846;-73
2021/11/16 09:26:50;;;;;;;61.63;25.80;;;9.60;83.80;;;;;;4988705;28;20042;-73
2021/11/16 09:29:13;;;;;;;61.38;24.70;;;9.70;83.60;;;;;;4968367;28;20120;-76
2021/11/16 09:31:47;;;;;;;56.33;24.10;;;9.80;83.30;;;;;;4957492;28;20050;-83
2021/11/16 09:34:12;;;;;;;59.17;24.73;;;9.80;83.60;;;;;;4992484;28;20039;-83
2021/11/16 09:36:40;;;;;;;59.13;24.52;;;9.90;83.30;;;;;;4975456;28;20026;-84
2021/11/16 09:39:18;;;;;;;61.33;25.75;;;10.00;83.20;;;;;;4977484;28;20037;-83
2021/11/16 09:42:05;;;;;;;53.72;23.77;;;10.10;82.70;;;;;;4976345;28;20038;-82
2021/11/16 09:44:32;;;;;;;;;;;10.20;82.10;;;;;;4974826;28;20133;-84
2021/11/16 09:47:04;;;;;;;58.05;23.83;;;10.20;80.80;;;;;;4987087;28;19914;-84
2021/11/16 09:49:34;;;;;;;62.80;24.88;;;10.10;81.90;;;;;;4989506;28;20035;-78
2021/11/16 09:52:08;;;;;;;55.58;24.25;;;10.20;81.40;;;;;;4978288;28;20042;-79
2021/11/16 09:55:01;;;;;;;63.13;24.20;;;10.30;81.80;;;;;;4977784;28;20043;-80
2021/11/16 09:57:34;;;;;;;61.10;25.88;;;10.30;81.70;;;;;;4980469;28;20041;-83
2021/11/16 10:00:08;;;;;;;56.40;24.92;;;10.30;80.60;;;;;;4953934;28;20049;-80
2021/11/16 10:02:37;;;;;;;53.90;23.27;;;10.30;80.70;;;;;;4973058;28;20038;-87
2021/11/16 10:05:15;;;;;;;62.00;25.92;;;10.30;81.00;;;;;;4972448;28;20054;-81
2021/11/16 10:07:41;;;;;;;56.28;24.25;;;10.40;81.40;;;;;;4968327;28;20165;-84
2021/11/16 10:10:07;;;;;;;64.35;25.40;;;10.40;81.30;;;;;;4976902;28;20070;-86
2021/11/16 10:12:48;;;;;;;52.90;23.48;;;10.50;80.40;;;;;;4978964;28;20035;-84
2021/11/16 10:15:16;;;;;;;52.00;23.60;;;10.60;80.10;;;;;;4967840;28;20034;-84
2021/11/16 10:17:47;;;;;;;54.72;22.52;;;10.60;80.10;;;;;;4949681;28;20121;-80
2021/11/16 10:20:19;;;;;;;51.22;24.08;;;10.60;79.90;;;;;;4981044;28;20038;-84
2021/11/16 10:22:52;;;;;;;52.63;24.23;;;10.70;79.60;;;;;;4986879;28;20035;-80
2021/11/16 10:25:22;;;;;;;59.00;24.48;;;10.70;79.40;;;;;;4971809;28;20121;-80
2021/11/16 10:27:50;;;;;;;54.13;23.02;;;10.80;78.90;;;;;;4975544;28;20039;-76
2021/11/16 10:30:26;;;;;;;55.05;24.60;;;10.70;78.30;;;;;;4979256;28;20027;-79
2021/11/16 10:33:15;;;;;;;;;;;10.70;79.10;;;;;;4966906;28;20050;-81
2021/11/16 10:36:00;;;;;;;50.17;21.33;;;10.80;79.50;;;;;;4992014;28;20384;-84
2021/11/16 10:38:30;;;;;;;51.07;23.20;;;10.80;79.90;;;;;;4980104;28;20074;-81
2021/11/16 10:40:58;;;;;;;55.20;24.00;;;10.90;79.80;;;;;;4969742;28;20062;-79
2021/11/16 10:43:38;;;;;;;53.17;23.90;;;10.90;79.80;;;;;;4968557;28;20078;-77
2021/11/16 10:46:05;;;;;;;54.67;23.35;;;11.00;78.60;;;;;;4974738;28;20044;-88
2021/11/16 10:48:32;;;;;;;55.13;23.27;;;11.00;78.30;;;;;;4981616;28;20550;-80
2021/11/16 10:50:58;;;;;;;47.05;22.27;;;11.00;78.40;;;;;;4973040;28;20077;-76
2021/11/16 10:53:26;;;;;;;52.00;22.15;;;11.00;78.20;;;;;;4972599;28;20038;-84
2021/11/16 10:56:01;;;;;;;51.38;23.17;;;10.90;77.70;;;;;;4972536;28;20120;-88
2021/11/16 10:58:34;;;;;;;57.60;23.25;;;10.90;78.30;;;;;;4982600;28;20088;-86
2021/11/16 11:01:05;;;;;;;45.25;22.38;;;10.80;78.90;;;;;;4975718;28;20043;-83
2021/11/16 11:03:32;;;;;;;55.15;23.88;;;10.80;79.70;;;;;;4965534;28;20045;-84
2021/11/16 11:06:14;;;;;;;58.05;24.75;;;10.90;79.70;;;;;;4974614;28;21046;-84
2021/11/16 11:08:53;;;;;;;50.60;23.20;;;11.00;79.40;;;;;;4975947;28;20043;-86
2021/11/16 11:11:20;;;;;;;52.58;22.67;;;11.00;78.60;;;;;;4967174;28;20178;-85
2021/11/16 11:13:51;;;;;;;54.10;22.77;;;11.00;79.00;;;;;;4971848;28;20052;-76
2021/11/16 11:16:17;;;;;;;51.95;22.40;;;11.00;79.00;;;;;;4968061;28;20085;-77
2021/11/16 11:18:47;;;;;;;53.30;23.88;;;11.00;78.70;;;;;;4985290;28;20534;-78
2021/11/16 11:21:31;;;;;;;51.33;23.90;;;11.00;78.10;;;;;;4989303;28;20041;-80
2021/11/16 11:24:00;;;;;;;52.83;22.52;;;10.90;78.80;;;;;;4954170;28;20030;-76
2021/11/16 11:26:33;;;;;;;45.28;22.65;;;10.90;78.80;;;;;;4978016;28;20026;-84
2021/11/16 11:29:14;;;;;;;54.95;23.55;;;10.90;79.00;;;;;;4958993;28;20050;-86
2021/11/16 11:31:43;;;;;;;51.33;21.70;;;10.90;78.90;;;;;;4960555;28;20537;-86
2021/11/16 11:34:10;;;;;;;51.55;23.35;;;10.90;78.90;;;;;;4948882;28;20565;-85
2021/11/16 11:36:36;;;;;;;58.25;24.20;;;10.80;79.80;;;;;;4977615;28;20038;-80
2021/11/16 11:39:32;;;;;;;53.42;23.85;;;10.80;79.60;;;;;;4970544;28;20554;-73
2021/11/16 11:41:58;;;;;;;59.58;25.10;;;10.80;80.10;;;;;;4979508;28;20035;-80
2021/11/16 11:44:26;;;;;;;52.15;21.77;;;10.80;79.50;;;;;;4984035;28;20035;-80
2021/11/16 11:47:00;;;;;;;48.35;23.92;;;10.70;79.60;;;;;;4960615;28;20031;-77
2021/11/16 11:49:28;;;;;;;47.88;22.85;;;10.70;79.90;;;;;;4976570;28;20149;-75
2021/11/16 11:52:00;;;;;;;55.67;24.50;;;10.70;80.60;;;;;;4979677;28;20069;-84
2021/11/16 11:54:26;;;;;;;50.65;22.98;;;10.70;80.60;;;;;;4958149;28;20039;-85
2021/11/16 11:56:54;;;;;;;54.42;23.65;;;10.80;80.80;;;;;;4969978;28;20039;-76
2021/11/16 11:59:22;;;;;;;58.15;23.83;;;10.80;80.20;;;;;;4975079;28;20403;-76
2021/11/16 12:01:49;;;;;;;51.30;23.15;;;10.80;80.10;;;;;;4977213;28;20065;-82
2021/11/16 12:04:18;;;;;;;52.58;22.88;;;10.70;79.60;;;;;;4980876;28;20121;-83
2021/11/16 12:06:46;;;;;;;48.90;21.95;;;10.70;80.20;;;;;;4992423;28;20042;-69
2021/11/16 12:09:12;;;;;;;55.05;21.92;;;10.70;81.00;;;;;;4973102;28;20038;-80
2021/11/16 12:11:43;;;;;;;51.13;24.27;;;10.80;80.90;;;;;;4965399;28;20133;-77
2021/11/16 12:14:23;;;;;;;51.97;23.50;;;10.70;79.90;;;;;;4977189;28;20104;-79
2021/11/16 12:17:03;;;;;;;49.38;21.92;;;10.70;79.70;;;;;;4981009;28;20169;-76
2021/11/16 12:19:48;;;;;;;49.30;21.27;;;10.70;80.50;;;;;;4976315;28;21000;-80
2021/11/16 12:22:29;;;;;;;51.42;22.55;;;10.70;80.90;;;;;;4980599;28;20509;-79
2021/11/16 12:24:59;;;;;;;55.20;23.85;;;10.70;81.20;;;;;;4978829;28;20470;-77
2021/11/16 12:27:33;;;;;;;50.35;22.40;;;10.70;81.10;;;;;;4977910;28;20829;-77
2021/11/16 12:30:01;;;;;;;50.25;22.42;;;10.70;81.30;;;;;;4971490;28;20562;-82
2021/11/16 12:32:33;;;;;;;55.33;22.63;;;10.70;81.50;;;;;;4972016;28;20034;-77
2021/11/16 12:35:04;;;;;;;53.63;22.25;;;10.80;80.80;;;;;;4967687;28;20475;-79
2021/11/16 12:37:31;;;;;;;49.10;22.48;;;10.70;80.60;;;;;;4977181;28;20030;-82
2021/11/16 12:40:01;;;;;;;47.13;22.35;;;10.70;80.70;;;;;;4963267;28;20374;-80
2021/11/16 12:42:27;;;;;;;45.95;20.75;;;10.80;81.10;;;;;;4961372;28;20713;-75
2021/11/16 12:45:00;;;;;;;47.80;21.70;;;10.90;81.30;;;;;;4964641;28;20106;-77
2021/11/16 12:47:29;;;;;;;46.90;21.58;;;10.90;81.50;;;;;;4968891;28;20066;-83
2021/11/16 12:50:08;;;;;;;57.17;24.13;;;10.90;81.00;;;;;;4973482;28;20026;-77
2021/11/16 12:52:44;;;;;;;54.40;23.48;;;10.90;81.00;;;;;;4985840;28;20035;-79
2021/11/16 12:55:19;;;;;;;50.33;22.23;;;10.80;81.20;;;;;;4996858;28;20038;-81
2021/11/16 12:57:46;;;;;;;58.28;23.33;;;10.80;80.60;;;;;;4979261;28;20300;-65
2021/11/16 13:00:13;;;;;;;53.47;22.60;;;10.70;80.70;;;;;;4972132;28;20030;-82